Terminal Aerodrome Forecast
Issued by NWS Sioux Falls, SD

Home | Current Version | Previous Version | Graphics & Text | Print | Product List | Glossary Off
Versions: 1 2 3 4 5 6 7 8 9 10 11 12 13 14 15 16 17 18 19 20

600
FTUS43 KFSD 181120
TAFFSD
TAF
KFSD 181120Z 1812/1912 20006KT P6SM SKC
     FM182300 17007KT P6SM SKC
     FM190900 17007KT P6SM BKN012=

USA.gov is the U.S. government's official web portal to all federal, state and local government web resources and services.